createdAt,value
2018-07-14T00:00:59.299Z,20.16
2018-07-14T00:03:27.669Z,20.23
2018-07-14T00:05:55.307Z,20.29
2018-07-14T00:08:22.897Z,20.37
2018-07-14T00:10:50.482Z,20.43
2018-07-14T00:13:18.098Z,20.39
2018-07-14T00:15:45.655Z,20.31
2018-07-14T00:18:13.197Z,20.25
2018-07-14T00:20:40.721Z,20.30
2018-07-14T00:23:08.810Z,20.35
2018-07-14T00:25:42.018Z,20.39
2018-07-14T00:28:09.615Z,20.38
2018-07-14T00:30:37.238Z,20.40
2018-07-14T00:33:04.796Z,20.40
2018-07-14T00:35:32.365Z,20.38
2018-07-14T00:37:59.950Z,20.39
2018-07-14T00:40:27.558Z,20.35
2018-07-14T00:42:55.135Z,20.27
2018-07-14T00:45:22.686Z,20.15
2018-07-14T00:47:50.241Z,20.07
2018-07-14T00:50:17.837Z,19.91
2018-07-14T00:52:45.391Z,19.80
2018-07-14T00:55:12.915Z,19.77
2018-07-14T00:57:40.499Z,19.66
2018-07-14T01:00:08.081Z,19.58
2018-07-14T01:02:35.666Z,19.63
2018-07-14T01:05:03.261Z,19.84
2018-07-14T01:07:30.872Z,19.93
2018-07-14T01:09:58.438Z,19.94
2018-07-14T01:12:26.187Z,20.01
2018-07-14T01:14:53.726Z,20.02
2018-07-14T01:17:21.270Z,20.08
2018-07-14T01:19:49.223Z,20.12
2018-07-14T01:22:16.749Z,20.17
2018-07-14T01:24:44.322Z,20.15
2018-07-14T01:27:11.879Z,20.12
2018-07-14T01:29:39.438Z,20.15
2018-07-14T01:32:06.983Z,20.08
2018-07-14T01:34:34.588Z,20.03
2018-07-14T01:37:02.184Z,20.00
2018-07-14T01:39:29.719Z,19.94
2018-07-14T01:41:57.295Z,19.86
2018-07-14T01:44:24.822Z,19.84
2018-07-14T01:46:52.341Z,19.89
2018-07-14T01:49:19.878Z,19.88
2018-07-14T01:51:47.387Z,19.90
2018-07-14T01:54:14.918Z,19.84
2018-07-14T01:56:42.491Z,19.84
2018-07-14T01:59:10.042Z,19.84
2018-07-14T02:01:37.573Z,19.78
2018-07-14T02:04:05.133Z,19.78
2018-07-14T02:06:32.652Z,19.74
2018-07-14T02:09:00.242Z,19.71
2018-07-14T02:11:27.795Z,19.67
2018-07-14T02:13:55.309Z,19.67
2018-07-14T02:16:22.858Z,19.66
2018-07-14T02:18:50.473Z,19.61
2018-07-14T02:21:18.026Z,19.56
2018-07-14T02:23:45.550Z,19.51
2018-07-14T02:26:13.154Z,19.44
2018-07-14T02:28:40.675Z,19.41
2018-07-14T02:31:08.218Z,19.33
2018-07-14T02:33:35.789Z,19.27
2018-07-14T02:36:03.390Z,19.19
2018-07-14T02:38:30.966Z,19.12
2018-07-14T02:40:58.537Z,19.13
2018-07-14T02:43:26.078Z,19.14
2018-07-14T02:45:53.635Z,19.07
2018-07-14T02:48:21.210Z,19.02
2018-07-14T02:50:48.758Z,19.00
2018-07-14T02:53:16.267Z,18.96
2018-07-14T02:55:43.896Z,18.94
2018-07-14T02:58:11.446Z,18.91
2018-07-14T03:00:38.986Z,18.90
2018-07-14T03:03:06.551Z,18.87
2018-07-14T03:05:34.095Z,18.83
2018-07-14T03:08:01.688Z,18.79
2018-07-14T03:10:29.275Z,18.77
2018-07-14T03:12:57.022Z,18.75
2018-07-14T03:15:24.554Z,18.72
2018-07-14T03:17:52.146Z,18.71
2018-07-14T03:20:19.715Z,18.68
2018-07-14T03:22:47.321Z,18.67
2018-07-14T03:25:14.879Z,18.66
2018-07-14T03:27:42.400Z,18.62
2018-07-14T03:30:09.959Z,18.60
2018-07-14T03:32:37.559Z,18.57
2018-07-14T03:35:05.126Z,18.55
2018-07-14T03:37:32.662Z,18.55
2018-07-14T03:40:00.228Z,18.55
2018-07-14T03:42:27.782Z,18.52
2018-07-14T03:44:55.353Z,18.49
2018-07-14T03:47:22.950Z,18.48
2018-07-14T03:49:50.479Z,18.48
2018-07-14T03:52:18.038Z,18.46
2018-07-14T03:54:45.605Z,18.50
2018-07-14T03:57:13.174Z,18.50
2018-07-14T03:59:40.714Z,18.56
2018-07-14T04:02:08.274Z,18.55
2018-07-14T04:04:35.815Z,18.55
2018-07-14T04:07:03.405Z,18.52
2018-07-14T04:09:31.043Z,18.48
2018-07-14T04:11:58.619Z,18.42
2018-07-14T04:14:26.166Z,18.32
2018-07-14T04:16:53.722Z,18.30
2018-07-14T04:19:21.270Z,18.21
2018-07-14T04:21:48.811Z,18.29
2018-07-14T04:24:16.442Z,18.28
2018-07-14T04:26:44.056Z,18.28
2018-07-14T04:29:11.566Z,18.43
2018-07-14T04:31:39.118Z,18.46
2018-07-14T04:34:06.648Z,18.38
2018-07-14T04:36:34.210Z,18.42
2018-07-14T04:39:01.823Z,18.36
2018-07-14T04:41:29.342Z,18.37
2018-07-14T04:43:56.910Z,18.40
2018-07-14T04:46:24.442Z,18.45
2018-07-14T04:48:52.027Z,18.50
2018-07-14T04:51:19.578Z,18.59
2018-07-14T04:53:47.110Z,18.53
2018-07-14T04:56:14.686Z,18.51
2018-07-14T04:58:42.223Z,18.56
2018-07-14T05:01:09.777Z,18.69
2018-07-14T05:03:37.320Z,18.80
2018-07-14T05:06:05.522Z,18.93
2018-07-14T05:08:33.066Z,18.96
2018-07-14T05:11:00.631Z,19.05
2018-07-14T05:13:28.202Z,19.10
2018-07-14T05:15:55.750Z,19.20
2018-07-14T05:18:23.334Z,19.43
2018-07-14T05:20:50.886Z,19.53
2018-07-14T05:23:18.433Z,19.56
2018-07-14T05:25:45.971Z,19.68
2018-07-14T05:28:13.526Z,19.68
2018-07-14T05:30:41.091Z,19.80
2018-07-14T05:33:08.615Z,19.91
2018-07-14T05:35:36.230Z,19.98
2018-07-14T05:38:03.863Z,19.93
2018-07-14T05:40:31.398Z,19.87
2018-07-14T05:42:59.218Z,19.95
2018-07-14T05:45:26.938Z,19.88
2018-07-14T05:47:54.538Z,19.90
2018-07-14T05:50:22.862Z,20.07
2018-07-14T05:52:50.498Z,20.16
2018-07-14T05:55:18.050Z,20.27
2018-07-14T05:57:45.618Z,20.41
2018-07-14T06:00:13.217Z,20.36
2018-07-14T06:02:40.761Z,20.47
2018-07-14T06:05:08.378Z,20.45
2018-07-14T06:07:35.936Z,20.52
2018-07-14T06:10:04.226Z,20.59
2018-07-14T06:12:32.930Z,20.41
2018-07-14T06:15:00.523Z,20.47
2018-07-14T06:17:28.090Z,20.56
2018-07-14T06:19:55.667Z,20.59
2018-07-14T06:22:23.230Z,20.56
2018-07-14T06:24:50.869Z,20.63
2018-07-14T06:27:18.430Z,20.73
2018-07-14T06:29:46.011Z,20.56
2018-07-14T06:32:13.767Z,20.44
2018-07-14T06:34:41.499Z,20.59
2018-07-14T06:37:09.066Z,20.61
2018-07-14T06:39:36.604Z,20.88
2018-07-14T06:42:04.198Z,21.03
2018-07-14T06:44:31.742Z,21.08
2018-07-14T06:46:59.330Z,21.18
2018-07-14T06:49:26.885Z,20.95
2018-07-14T06:51:54.463Z,21.15
2018-07-14T06:54:22.105Z,21.34
2018-07-14T06:56:49.573Z,21.57
2018-07-14T06:59:17.139Z,21.75
2018-07-14T07:01:44.670Z,21.90
2018-07-14T07:04:12.230Z,22.02
2018-07-14T07:06:39.773Z,22.15
2018-07-14T07:09:07.372Z,22.37
2018-07-14T07:11:34.967Z,22.54
2018-07-14T07:14:02.600Z,22.59
2018-07-14T07:16:30.149Z,22.57
2018-07-14T07:18:57.710Z,22.91
2018-07-14T07:21:25.313Z,23.02
2018-07-14T07:23:52.857Z,23.15
2018-07-14T07:26:20.406Z,23.32
2018-07-14T07:28:48.079Z,23.70
2018-07-14T07:31:15.699Z,23.99
2018-07-14T07:33:43.299Z,23.63
2018-07-14T07:36:10.875Z,23.90
2018-07-14T07:38:38.534Z,23.92
2018-07-14T07:41:06.154Z,24.17
2018-07-14T07:43:33.789Z,24.46
2018-07-14T07:46:01.379Z,24.13
2018-07-14T07:48:28.961Z,24.26
2018-07-14T07:50:56.566Z,24.38
2018-07-14T07:53:24.077Z,24.74
2018-07-14T07:55:51.610Z,24.75
2018-07-14T07:58:19.147Z,24.37
2018-07-14T08:00:46.730Z,24.39
2018-07-14T08:03:14.271Z,24.99
2018-07-14T08:05:41.821Z,25.54
2018-07-14T08:08:09.414Z,25.35
2018-07-14T08:10:36.990Z,25.29
2018-07-14T08:13:04.699Z,25.59
2018-07-14T08:15:32.290Z,25.38
2018-07-14T08:17:59.865Z,25.44
2018-07-14T08:20:27.397Z,25.66
2018-07-14T08:22:55.118Z,26.01
2018-07-14T08:25:22.591Z,25.87
2018-07-14T08:27:50.170Z,25.54
2018-07-14T08:30:17.739Z,25.60
2018-07-14T08:32:45.341Z,26.04
2018-07-14T08:35:12.914Z,26.20
2018-07-14T08:37:40.596Z,25.47
2018-07-14T08:40:08.199Z,26.08
2018-07-14T08:42:36.735Z,26.67
2018-07-14T08:45:04.463Z,27.22
2018-07-14T08:47:32.053Z,27.61
2018-07-14T08:49:59.661Z,28.00
2018-07-14T08:52:27.192Z,28.00
2018-07-14T08:54:54.753Z,28.40
2018-07-14T08:57:22.350Z,29.04
2018-07-14T08:59:49.919Z,29.44
2018-07-14T09:02:17.458Z,29.79
2018-07-14T09:04:44.985Z,29.95
2018-07-14T09:07:12.549Z,30.14
2018-07-14T09:09:40.109Z,30.51
2018-07-14T09:12:07.709Z,30.33
2018-07-14T09:14:35.230Z,30.21
2018-07-14T09:17:02.818Z,29.48
2018-07-14T09:19:30.367Z,28.63
2018-07-14T09:21:57.991Z,28.53
2018-07-14T09:24:25.538Z,28.87
2018-07-14T09:26:53.574Z,29.16
2018-07-14T09:29:21.175Z,30.02
2018-07-14T09:31:48.706Z,30.57
2018-07-14T09:34:16.250Z,30.90
2018-07-14T09:36:43.863Z,30.39
2018-07-14T09:39:11.382Z,30.93
2018-07-14T09:41:38.950Z,30.89
2018-07-14T09:44:06.573Z,30.62
2018-07-14T09:46:34.130Z,30.88
2018-07-14T09:49:01.711Z,29.93
2018-07-14T09:51:29.276Z,29.81
2018-07-14T09:53:56.827Z,30.63
2018-07-14T09:56:24.354Z,31.29
2018-07-14T09:58:51.893Z,31.48
2018-07-14T10:01:19.442Z,30.94
2018-07-14T10:03:47.046Z,29.76
2018-07-14T10:06:14.724Z,28.99
2018-07-14T10:08:42.233Z,29.17
2018-07-14T10:11:09.793Z,30.03
2018-07-14T10:13:37.341Z,30.68
2018-07-14T10:16:04.982Z,30.71
2018-07-14T10:18:32.508Z,30.69
2018-07-14T10:21:00.055Z,31.13
2018-07-14T10:23:27.650Z,31.38
2018-07-14T10:25:55.365Z,31.73
2018-07-14T10:28:22.874Z,32.23
2018-07-14T10:30:50.426Z,32.75
2018-07-14T10:33:18.051Z,33.21
2018-07-14T10:35:45.594Z,33.15
2018-07-14T10:38:13.115Z,33.27
2018-07-14T10:40:40.681Z,33.39
2018-07-14T10:43:08.210Z,33.81
2018-07-14T10:45:35.947Z,34.04
2018-07-14T10:48:03.516Z,34.17
2018-07-14T10:50:31.060Z,34.53
2018-07-14T10:52:58.620Z,34.61
2018-07-14T10:55:26.138Z,34.51
2018-07-14T10:57:53.649Z,34.61
2018-07-14T11:00:21.278Z,34.87
2018-07-14T11:02:48.807Z,35.21
2018-07-14T11:05:16.375Z,35.49
2018-07-14T11:07:43.905Z,35.67
2018-07-14T11:10:11.490Z,35.72
2018-07-14T11:12:39.049Z,35.77
2018-07-14T11:15:06.614Z,35.96
2018-07-14T11:17:34.181Z,36.06
2018-07-14T11:20:01.867Z,36.04
2018-07-14T11:22:29.482Z,35.92
2018-07-14T11:24:57.018Z,36.07
2018-07-14T11:27:24.600Z,36.25
2018-07-14T11:29:52.182Z,36.59
2018-07-14T11:32:19.799Z,36.62
2018-07-14T11:34:47.354Z,36.20
2018-07-14T11:37:15.510Z,36.26
2018-07-14T11:39:43.072Z,36.98
2018-07-14T11:42:10.670Z,37.26
2018-07-14T11:44:38.202Z,37.27
2018-07-14T11:47:05.794Z,37.40
2018-07-14T11:49:33.340Z,37.60
2018-07-14T11:52:01.346Z,37.93
2018-07-14T11:54:29.206Z,38.14
2018-07-14T11:56:56.774Z,38.46
2018-07-14T11:59:24.507Z,38.67
2018-07-14T12:01:52.123Z,39.00
2018-07-14T12:04:19.657Z,39.09
2018-07-14T12:06:47.202Z,38.72
2018-07-14T12:09:14.783Z,38.70
2018-07-14T12:11:42.375Z,38.76
2018-07-14T12:14:09.915Z,38.90
2018-07-14T12:16:37.558Z,39.37
2018-07-14T12:19:05.258Z,39.64
2018-07-14T12:21:33.306Z,39.76
2018-07-14T12:24:01.015Z,39.85
2018-07-14T12:26:28.839Z,40.02
2018-07-14T12:28:56.650Z,40.32
2018-07-14T12:31:24.219Z,40.32
2018-07-14T12:33:51.746Z,39.67
2018-07-14T12:36:19.338Z,39.70
2018-07-14T12:38:47.058Z,40.26
2018-07-14T12:41:14.706Z,40.44
2018-07-14T12:43:42.466Z,40.29
2018-07-14T12:46:10.116Z,40.04
2018-07-14T12:48:37.876Z,40.03
2018-07-14T12:51:05.766Z,39.61
2018-07-14T12:53:33.406Z,40.19
2018-07-14T12:56:00.995Z,40.54
2018-07-14T12:58:28.686Z,40.42
2018-07-14T13:00:56.275Z,40.35
2018-07-14T13:03:23.938Z,40.59
2018-07-14T13:05:51.538Z,40.54
2018-07-14T13:08:19.090Z,40.61
2018-07-14T13:10:46.743Z,40.25
2018-07-14T13:13:14.338Z,40.70
2018-07-14T13:15:41.975Z,40.70
2018-07-14T13:18:09.511Z,40.60
2018-07-14T13:20:37.059Z,40.66
2018-07-14T13:23:04.726Z,39.20
2018-07-14T13:25:32.277Z,40.43
2018-07-14T13:27:59.891Z,41.02
2018-07-14T13:30:27.906Z,41.34
2018-07-14T13:32:55.433Z,41.64
2018-07-14T13:35:23.014Z,41.64
2018-07-14T13:37:50.577Z,41.61
2018-07-14T13:40:18.259Z,41.67
2018-07-14T13:42:45.814Z,41.91
2018-07-14T13:45:15.282Z,42.14
2018-07-14T13:47:42.833Z,42.23
2018-07-14T13:50:10.394Z,42.13
2018-07-14T13:52:37.953Z,41.66
2018-07-14T13:55:05.786Z,41.75
2018-07-14T13:57:33.341Z,41.94
2018-07-14T14:00:00.980Z,42.18
2018-07-14T14:02:28.526Z,42.27
2018-07-14T14:04:56.101Z,42.42
2018-07-14T14:07:23.690Z,42.45
2018-07-14T14:09:51.199Z,42.10
2018-07-14T14:12:18.754Z,41.90
2018-07-14T14:14:46.499Z,41.90
2018-07-14T14:17:14.082Z,41.84
2018-07-14T14:19:41.663Z,41.47
2018-07-14T14:22:09.240Z,41.67
2018-07-14T14:24:36.837Z,41.59
2018-07-14T14:27:04.451Z,41.63
2018-07-14T14:29:32.034Z,41.71
2018-07-14T14:31:59.582Z,41.62
2018-07-14T14:34:27.177Z,41.48
2018-07-14T14:36:54.752Z,41.45
2018-07-14T14:39:22.291Z,41.28
2018-07-14T14:41:49.898Z,41.19
2018-07-14T14:44:17.439Z,41.10
2018-07-14T14:46:45.024Z,40.98
2018-07-14T14:49:12.538Z,40.94
2018-07-14T14:51:40.170Z,40.48
2018-07-14T14:54:07.730Z,40.25
2018-07-14T14:56:35.280Z,39.96
2018-07-14T14:59:03.017Z,39.89
2018-07-14T15:01:30.548Z,39.51
2018-07-14T15:03:58.134Z,39.08
2018-07-14T15:06:25.703Z,38.66
2018-07-14T15:08:53.254Z,38.03
2018-07-14T15:11:20.807Z,37.14
2018-07-14T15:13:48.333Z,36.52
2018-07-14T15:16:15.896Z,36.10
2018-07-14T15:18:43.425Z,35.74
2018-07-14T15:21:10.992Z,34.87
2018-07-14T15:23:38.570Z,34.24
2018-07-14T15:26:06.189Z,33.76
2018-07-14T15:28:33.778Z,33.35
2018-07-14T15:31:01.395Z,33.03
2018-07-14T15:33:28.990Z,32.64
2018-07-14T15:35:56.562Z,32.23
2018-07-14T15:38:24.099Z,31.76
2018-07-14T15:40:51.666Z,31.55
2018-07-14T15:43:19.270Z,31.36
2018-07-14T15:45:46.862Z,31.15
2018-07-14T15:48:14.470Z,30.97
2018-07-14T15:50:42.066Z,30.80
2018-07-14T15:53:09.645Z,30.51
2018-07-14T15:55:37.222Z,30.09
2018-07-14T15:58:04.851Z,29.90
2018-07-14T16:00:32.462Z,29.82
2018-07-14T16:03:00.005Z,29.68
2018-07-14T16:05:27.552Z,29.61
2018-07-14T16:07:55.163Z,29.58
2018-07-14T16:10:22.735Z,29.64
2018-07-14T16:12:50.378Z,29.65
2018-07-14T16:15:18.025Z,29.52
2018-07-14T16:17:45.602Z,29.47
2018-07-14T16:20:13.431Z,29.45
2018-07-14T16:22:40.972Z,29.34
2018-07-14T16:25:08.562Z,29.35
2018-07-14T16:27:36.154Z,29.30
2018-07-14T16:30:03.778Z,29.24
2018-07-14T16:32:31.317Z,29.22
2018-07-14T16:34:59.026Z,29.19
2018-07-14T16:37:26.559Z,29.17
2018-07-14T16:39:54.158Z,29.17
2018-07-14T16:42:21.711Z,29.19
2018-07-14T16:44:49.297Z,29.22
2018-07-14T16:47:16.878Z,29.21
2018-07-14T16:49:44.430Z,29.15
2018-07-14T16:52:12.062Z,29.08
2018-07-14T16:54:39.595Z,29.02
2018-07-14T16:57:07.181Z,28.94
2018-07-14T16:59:34.846Z,28.87
2018-07-14T17:02:02.462Z,28.76
2018-07-14T17:04:30.090Z,28.69
2018-07-14T17:06:57.574Z,28.66
2018-07-14T17:09:25.117Z,28.61
2018-07-14T17:11:52.670Z,28.55
2018-07-14T17:14:20.207Z,28.46
2018-07-14T17:16:47.882Z,28.40
2018-07-14T17:19:15.434Z,28.36
2018-07-14T17:21:42.990Z,28.32
2018-07-14T17:24:10.603Z,28.23
2018-07-14T17:26:38.134Z,28.20
2018-07-14T17:29:05.742Z,28.08
2018-07-14T17:31:33.290Z,27.98
2018-07-14T17:34:00.850Z,27.94
2018-07-14T17:36:28.437Z,27.94
2018-07-14T17:38:55.990Z,27.92
2018-07-14T17:41:23.610Z,27.86
2018-07-14T17:43:51.217Z,27.78
2018-07-14T17:46:18.707Z,27.73
2018-07-14T17:48:46.274Z,27.71
2018-07-14T17:51:13.995Z,27.64
2018-07-14T17:53:41.561Z,27.57
2018-07-14T17:56:09.129Z,27.50
2018-07-14T17:58:36.653Z,27.45
2018-07-14T18:01:04.247Z,27.40
2018-07-14T18:03:31.814Z,27.33
2018-07-14T18:05:59.375Z,27.21
2018-07-14T18:08:26.905Z,27.13
2018-07-14T18:10:54.522Z,27.07
2018-07-14T18:13:22.134Z,26.99
2018-07-14T18:15:49.702Z,26.94
2018-07-14T18:18:17.262Z,26.88
2018-07-14T18:20:44.858Z,26.79
2018-07-14T18:23:12.420Z,26.73
2018-07-14T18:25:39.962Z,26.65
2018-07-14T18:28:07.537Z,26.60
2018-07-14T18:30:35.097Z,26.55
2018-07-14T18:33:02.695Z,26.45
2018-07-14T18:35:30.282Z,26.40
2018-07-14T18:37:57.872Z,26.35
2018-07-14T18:40:25.450Z,26.27
2018-07-14T18:42:53.030Z,26.18
2018-07-14T18:45:20.644Z,26.12
2018-07-14T18:47:48.218Z,26.04
2018-07-14T18:50:15.774Z,25.97
2018-07-14T18:52:43.449Z,25.92
2018-07-14T18:55:11.029Z,25.88
2018-07-14T18:57:39.506Z,25.80
2018-07-14T19:00:07.254Z,25.77
2018-07-14T19:02:34.819Z,25.68
2018-07-14T19:05:02.704Z,25.58
2018-07-14T19:07:30.258Z,25.51
2018-07-14T19:09:57.863Z,25.46
2018-07-14T19:12:25.456Z,25.39
2018-07-14T19:14:53.058Z,25.29
2018-07-14T19:17:20.646Z,25.21
2018-07-14T19:19:49.286Z,25.15
2018-07-14T19:22:16.852Z,25.11
2018-07-14T19:24:45.006Z,25.05
2018-07-14T19:27:12.559Z,24.97
2018-07-14T19:29:40.134Z,24.86
2018-07-14T19:32:07.814Z,24.84
2018-07-14T19:34:35.338Z,24.77
2018-07-14T19:37:02.919Z,24.72
2018-07-14T19:39:30.457Z,24.65
2018-07-14T19:41:58.134Z,24.59
2018-07-14T19:44:25.750Z,24.53
2018-07-14T19:46:53.386Z,24.48
2018-07-14T19:49:20.920Z,24.42
2018-07-14T19:51:48.474Z,24.36
2018-07-14T19:54:16.147Z,24.29
2018-07-14T19:56:43.686Z,24.24
2018-07-14T19:59:11.246Z,24.16
2018-07-14T20:01:38.791Z,24.08
2018-07-14T20:04:06.511Z,24.02
2018-07-14T20:06:34.061Z,23.92
2018-07-14T20:09:01.719Z,23.86
2018-07-14T20:11:29.393Z,23.78
2018-07-14T20:13:57.135Z,23.70
2018-07-14T20:16:24.698Z,23.63
2018-07-14T20:18:52.984Z,23.54
2018-07-14T20:21:20.575Z,23.49
2018-07-14T20:23:48.170Z,23.44
2018-07-14T20:26:15.706Z,23.38
2018-07-14T20:28:44.623Z,23.31
2018-07-14T20:31:14.348Z,23.22
2018-07-14T20:33:45.318Z,23.14
2018-07-14T20:36:16.181Z,23.06
2018-07-14T20:38:46.744Z,23.02
2018-07-14T20:41:16.164Z,22.94
2018-07-14T20:43:45.906Z,22.92
2018-07-14T20:46:13.546Z,22.84
2018-07-14T20:48:41.083Z,22.80
2018-07-14T20:51:08.682Z,22.74
2018-07-14T20:53:36.250Z,22.67
2018-07-14T20:56:03.878Z,22.65
2018-07-14T20:58:31.474Z,22.62
2018-07-14T21:00:59.077Z,22.58
2018-07-14T21:03:26.619Z,22.54
2018-07-14T21:05:54.655Z,22.46
2018-07-14T21:08:22.310Z,22.40
2018-07-14T21:10:49.848Z,22.40
2018-07-14T21:13:17.466Z,22.37
2018-07-14T21:15:45.043Z,22.31
2018-07-14T21:18:12.681Z,22.18
2018-07-14T21:20:40.253Z,22.16
2018-07-14T21:23:07.814Z,22.14
2018-07-14T21:25:35.394Z,22.13
2018-07-14T21:28:02.959Z,22.10
2018-07-14T21:30:30.539Z,22.08
2018-07-14T21:32:58.179Z,22.06
2018-07-14T21:35:25.733Z,22.04
2018-07-14T21:37:53.332Z,22.02
2018-07-14T21:40:21.046Z,22.00
2018-07-14T21:42:48.550Z,21.97
2018-07-14T21:45:16.123Z,21.93
2018-07-14T21:47:43.649Z,21.92
2018-07-14T21:50:11.367Z,21.86
2018-07-14T21:52:38.906Z,21.82
2018-07-14T21:55:06.500Z,21.81
2018-07-14T21:57:34.161Z,21.76
2018-07-14T22:00:01.871Z,21.75
2018-07-14T22:02:29.435Z,21.73
2018-07-14T22:04:57.570Z,21.68
2018-07-14T22:07:25.161Z,21.68
2018-07-14T22:09:53.264Z,21.61
2018-07-14T22:12:21.036Z,21.56
2018-07-14T22:14:48.946Z,21.54
2018-07-14T22:17:16.893Z,21.52
2018-07-14T22:19:44.635Z,21.48
2018-07-14T22:22:12.610Z,21.46
2018-07-14T22:24:40.286Z,21.43
2018-07-14T22:27:08.091Z,21.46
2018-07-14T22:29:35.640Z,21.42
2018-07-14T22:32:03.459Z,21.37
2018-07-14T22:34:31.055Z,21.34
2018-07-14T22:36:58.674Z,21.26
2018-07-14T22:39:26.551Z,21.22
2018-07-14T22:41:54.091Z,21.18
2018-07-14T22:44:21.630Z,21.12
2018-07-14T22:46:49.754Z,21.07
2018-07-14T22:49:17.662Z,21.01
2018-07-14T22:51:45.338Z,20.97
2018-07-14T22:54:13.119Z,20.95
2018-07-14T22:56:40.861Z,20.94
2018-07-14T22:59:08.498Z,20.90
2018-07-14T23:01:36.053Z,20.85
2018-07-14T23:04:03.806Z,20.83
2018-07-14T23:06:31.470Z,20.78
2018-07-14T23:08:59.376Z,20.78
2018-07-14T23:11:27.080Z,20.77
2018-07-14T23:13:54.743Z,20.74
2018-07-14T23:16:22.480Z,20.67
2018-07-14T23:18:50.075Z,20.63
2018-07-14T23:21:17.748Z,20.58
2018-07-14T23:23:45.415Z,20.53
2018-07-14T23:26:13.010Z,20.51
2018-07-14T23:28:41.174Z,20.48
2018-07-14T23:31:09.327Z,20.44
2018-07-14T23:33:37.362Z,20.41
2018-07-14T23:36:05.756Z,20.39
2018-07-14T23:38:33.582Z,20.34
2018-07-14T23:41:01.464Z,20.37
2018-07-14T23:43:29.307Z,20.39
2018-07-14T23:45:57.109Z,20.39
2018-07-14T23:48:24.938Z,20.37
2018-07-14T23:50:52.559Z,20.33
2018-07-14T23:53:20.381Z,20.31
2018-07-14T23:55:48.178Z,20.26
2018-07-14T23:58:15.927Z,20.18
